sensor_id;sensor_type;location;lat;lon;timestamp;pressure;altitude;pressure_sealevel;temperature;humidity
10881;BME280;5493;48.884;8.338;2023-06-04T00:02:11;100149.75;;;17.55;100.00
10881;BME280;5493;48.884;8.338;2023-06-04T00:04:37;100148.91;;;17.49;100.00
10881;BME280;5493;48.884;8.338;2023-06-04T00:07:04;100157.34;;;17.43;100.00
10881;BME280;5493;48.884;8.338;2023-06-04T00:09:31;100152.44;;;17.45;100.00
10881;BME280;5493;48.884;8.338;2023-06-04T00:11:57;100149.44;;;17.36;100.00
10881;BME280;5493;48.884;8.338;2023-06-04T00:14:24;100148.59;;;17.36;100.00
10881;BME280;5493;48.884;8.338;2023-06-04T00:16:50;100147.56;;;17.52;100.00
10881;BME280;5493;48.884;8.338;2023-06-04T00:19:18;100149.97;;;17.38;100.00
10881;BME280;5493;48.884;8.338;2023-06-04T00:21:45;100145.81;;;17.26;100.00
10881;BME280;5493;48.884;8.338;2023-06-04T00:24:11;100145.81;;;17.26;100.00
10881;BME280;5493;48.884;8.338;2023-06-04T00:26:38;100141.19;;;17.26;100.00
10881;BME280;5493;48.884;8.338;2023-06-04T00:29:05;100150.13;;;17.11;100.00
10881;BME280;5493;48.884;8.338;2023-06-04T00:31:31;100149.59;;;17.09;100.00
10881;BME280;5493;48.884;8.338;2023-06-04T00:33:58;100155.59;;;17.16;100.00
10881;BME280;5493;48.884;8.338;2023-06-04T00:36:25;100146.56;;;17.06;100.00
10881;BME280;5493;48.884;8.338;2023-06-04T00:38:52;100149.25;;;17.01;100.00
10881;BME280;5493;48.884;8.338;2023-06-04T00:41:18;100149.78;;;16.93;100.00
10881;BME280;5493;48.884;8.338;2023-06-04T00:43:45;100150.06;;;16.96;100.00
10881;BME280;5493;48.884;8.338;2023-06-04T00:46:21;100151.91;;;16.86;100.00
10881;BME280;5493;48.884;8.338;2023-06-04T00:48:48;100148.53;;;16.68;100.00
10881;BME280;5493;48.884;8.338;2023-06-04T00:51:15;100151.00;;;16.70;100.00
10881;BME280;5493;48.884;8.338;2023-06-04T00:53:42;100150.66;;;16.61;100.00
10881;BME280;5493;48.884;8.338;2023-06-04T00:56:09;100150.97;;;16.65;100.00
10881;BME280;5493;48.884;8.338;2023-06-04T00:58:37;100151.13;;;16.53;100.00
10881;BME280;5493;48.884;8.338;2023-06-04T01:01:07;100148.09;;;16.50;100.00
10881;BME280;5493;48.884;8.338;2023-06-04T01:03:38;100147.81;;;16.46;100.00
10881;BME280;5493;48.884;8.338;2023-06-04T01:06:13;100155.91;;;16.36;100.00
10881;BME280;5493;48.884;8.338;2023-06-04T01:08:49;100152.66;;;16.39;100.00
10881;BME280;5493;48.884;8.338;2023-06-04T01:11:30;100154.66;;;16.49;100.00
10881;BME280;5493;48.884;8.338;2023-06-04T01:13:57;100155.19;;;16.51;100.00
10881;BME280;5493;48.884;8.338;2023-06-04T01:16:24;100160.56;;;16.41;100.00
10881;BME280;5493;48.884;8.338;2023-06-04T01:18:56;100160.34;;;16.47;100.00
10881;BME280;5493;48.884;8.338;2023-06-04T01:21:25;100154.56;;;16.39;100.00
10881;BME280;5493;48.884;8.338;2023-06-04T01:23:56;100151.19;;;16.58;100.00
10881;BME280;5493;48.884;8.338;2023-06-04T01:26:27;100161.22;;;16.53;100.00
10881;BME280;5493;48.884;8.338;2023-06-04T01:28:54;100152.66;;;16.39;100.00
10881;BME280;5493;48.884;8.338;2023-06-04T01:31:21;100155.38;;;16.39;100.00
10881;BME280;5493;48.884;8.338;2023-06-04T01:33:50;100154.81;;;16.37;100.00
10881;BME280;5493;48.884;8.338;2023-06-04T01:36:17;100147.84;;;16.51;100.00
10881;BME280;5493;48.884;8.338;2023-06-04T01:38:43;100148.91;;;16.45;100.00
10881;BME280;5493;48.884;8.338;2023-06-04T01:41:11;100156.97;;;16.35;100.00
10881;BME280;5493;48.884;8.338;2023-06-04T01:43:38;100149.34;;;16.32;100.00
10881;BME280;5493;48.884;8.338;2023-06-04T01:46:04;100148.84;;;16.40;100.00
10881;BME280;5493;48.884;8.338;2023-06-04T01:48:31;100150.47;;;16.36;100.00
10881;BME280;5493;48.884;8.338;2023-06-04T01:50:58;100148.25;;;16.33;100.00
10881;BME280;5493;48.884;8.338;2023-06-04T01:53:25;100157.88;;;16.14;100.00
10881;BME280;5493;48.884;8.338;2023-06-04T01:55:52;100163.16;;;16.25;100.00
10881;BME280;5493;48.884;8.338;2023-06-04T01:58:19;100159.84;;;16.18;100.00
10881;BME280;5493;48.884;8.338;2023-06-04T02:00:48;100166.03;;;16.09;100.00
10881;BME280;5493;48.884;8.338;2023-06-04T02:03:14;100165.72;;;16.05;100.00
10881;BME280;5493;48.884;8.338;2023-06-04T02:05:41;100155.84;;;15.99;100.00
10881;BME280;5493;48.884;8.338;2023-06-04T02:08:09;100159.63;;;16.25;100.00
10881;BME280;5493;48.884;8.338;2023-06-04T02:10:36;100152.94;;;16.06;100.00
10881;BME280;5493;48.884;8.338;2023-06-04T02:13:03;100161.19;;;16.16;100.00
10881;BME280;5493;48.884;8.338;2023-06-04T02:15:31;100157.72;;;15.94;100.00
10881;BME280;5493;48.884;8.338;2023-06-04T02:18:00;100171.84;;;15.91;100.00
10881;BME280;5493;48.884;8.338;2023-06-04T02:20:38;100157.78;;;15.99;100.00
10881;BME280;5493;48.884;8.338;2023-06-04T02:23:04;100156.75;;;16.05;100.00
10881;BME280;5493;48.884;8.338;2023-06-04T02:25:31;100159.41;;;16.00;100.00
10881;BME280;5493;48.884;8.338;2023-06-04T02:27:57;100169.66;;;15.93;100.00
10881;BME280;5493;48.884;8.338;2023-06-04T02:30:23;100169.94;;;15.91;100.00
10881;BME280;5493;48.884;8.338;2023-06-04T02:32:51;100169.72;;;15.98;100.00
10881;BME280;5493;48.884;8.338;2023-06-04T02:35:20;100168.28;;;15.90;100.00
10881;BME280;5493;48.884;8.338;2023-06-04T02:37:48;100160.97;;;15.91;100.00
10881;BME280;5493;48.884;8.338;2023-06-04T02:40:14;100154.47;;;15.97;100.00
10881;BME280;5493;48.884;8.338;2023-06-04T02:42:41;100157.72;;;15.94;100.00
10881;BME280;5493;48.884;8.338;2023-06-04T02:45:09;100163.63;;;15.86;100.00
10881;BME280;5493;48.884;8.338;2023-06-04T02:47:36;100161.78;;;15.91;100.00
10881;BME280;5493;48.884;8.338;2023-06-04T02:50:05;100158.75;;;15.88;100.00
10881;BME280;5493;48.884;8.338;2023-06-04T02:52:32;100162.94;;;15.73;100.00
10881;BME280;5493;48.884;8.338;2023-06-04T02:55:02;100166.63;;;15.89;100.00
10881;BME280;5493;48.884;8.338;2023-06-04T02:57:29;100171.84;;;15.91;100.00
10881;BME280;5493;48.884;8.338;2023-06-04T02:59:56;100178.94;;;15.70;100.00
10881;BME280;5493;48.884;8.338;2023-06-04T03:02:23;100178.53;;;15.56;100.00
10881;BME280;5493;48.884;8.338;2023-06-04T03:04:50;100178.94;;;15.70;100.00
10881;BME280;5493;48.884;8.338;2023-06-04T03:07:18;100174.47;;;15.81;100.00
10881;BME280;5493;48.884;8.338;2023-06-04T03:09:48;100178.38;;;15.68;100.00
10881;BME280;5493;48.884;8.338;2023-06-04T03:12:14;100183.72;;;15.85;100.00
10881;BME280;5493;48.884;8.338;2023-06-04T03:14:41;100185.81;;;15.77;100.00
10881;BME280;5493;48.884;8.338;2023-06-04T03:17:07;100181.81;;;15.85;100.00
10881;BME280;5493;48.884;8.338;2023-06-04T03:19:35;100181.88;;;15.90;100.00
10881;BME280;5493;48.884;8.338;2023-06-04T03:22:03;100185.22;;;15.97;100.00
10881;BME280;5493;48.884;8.338;2023-06-04T03:24:34;100183.09;;;15.77;100.00
10881;BME280;5493;48.884;8.338;2023-06-04T03:27:02;100186.00;;;15.66;100.00
10881;BME280;5493;48.884;8.338;2023-06-04T03:29:28;100190.19;;;15.79;100.00
10881;BME280;5493;48.884;8.338;2023-06-04T03:31:55;100185.56;;;15.79;100.00
10881;BME280;5493;48.884;8.338;2023-06-04T03:34:22;100189.78;;;15.65;100.00
10881;BME280;5493;48.884;8.338;2023-06-04T03:36:50;100187.63;;;15.67;100.00
10881;BME280;5493;48.884;8.338;2023-06-04T03:39:16;100188.09;;;15.59;100.00
10881;BME280;5493;48.884;8.338;2023-06-04T03:41:44;100187.09;;;15.70;100.00
10881;BME280;5493;48.884;8.338;2023-06-04T03:44:12;100185.28;;;15.75;100.00
10881;BME280;5493;48.884;8.338;2023-06-04T03:46:39;100184.38;;;15.48;100.00
10881;BME280;5493;48.884;8.338;2023-06-04T03:49:05;100190.75;;;15.54;100.00
10881;BME280;5493;48.884;8.338;2023-06-04T03:51:32;100187.06;;;15.43;100.00
10881;BME280;5493;48.884;8.338;2023-06-04T03:53:59;100189.00;;;15.26;100.00
10881;BME280;5493;48.884;8.338;2023-06-04T03:56:27;100190.00;;;15.42;100.00
10881;BME280;5493;48.884;8.338;2023-06-04T03:58:55;100186.09;;;15.33;100.00
10881;BME280;5493;48.884;8.338;2023-06-04T04:01:21;100191.53;;;15.33;100.00
10881;BME280;5493;48.884;8.338;2023-06-04T04:03:48;100196.53;;;15.41;100.00
10881;BME280;5493;48.884;8.338;2023-06-04T04:06:16;100196.53;;;15.41;100.00
10881;BME280;5493;48.884;8.338;2023-06-04T04:08:43;100195.94;;;15.39;100.00
10881;BME280;5493;48.884;8.338;2023-06-04T04:11:10;100198.47;;;15.45;100.00
10881;BME280;5493;48.884;8.338;2023-06-04T04:13:36;100198.38;;;15.57;100.00
10881;BME280;5493;48.884;8.338;2023-06-04T04:16:04;100206.31;;;15.63;100.00
10881;BME280;5493;48.884;8.338;2023-06-04T04:18:32;100204.38;;;15.81;100.00
10881;BME280;5493;48.884;8.338;2023-06-04T04:20:59;100205.00;;;15.93;100.00
10881;BME280;5493;48.884;8.338;2023-06-04T04:23:26;100205.38;;;16.01;100.00
10881;BME280;5493;48.884;8.338;2023-06-04T04:25:53;100208.41;;;16.05;100.00
10881;BME280;5493;48.884;8.338;2023-06-04T04:28:21;100206.31;;;16.12;100.00
10881;BME280;5493;48.884;8.338;2023-06-04T04:30:48;100207.81;;;16.30;100.00
10881;BME280;5493;48.884;8.338;2023-06-04T04:33:16;100213.72;;;16.21;100.00
10881;BME280;5493;48.884;8.338;2023-06-04T04:35:42;100223.63;;;16.33;100.00
10881;BME280;5493;48.884;8.338;2023-06-04T04:38:09;100224.38;;;16.55;100.00
10881;BME280;5493;48.884;8.338;2023-06-04T04:40:36;100221.44;;;16.61;100.00
10881;BME280;5493;48.884;8.338;2023-06-04T04:43:02;100219.59;;;16.67;100.00
10881;BME280;5493;48.884;8.338;2023-06-04T04:45:30;100222.63;;;16.76;100.00
10881;BME280;5493;48.884;8.338;2023-06-04T04:47:57;100223.09;;;16.99;100.00
10881;BME280;5493;48.884;8.338;2023-06-04T04:50:25;100213.91;;;17.10;100.00
10881;BME280;5493;48.884;8.338;2023-06-04T04:52:51;100222.13;;;17.26;100.00
10881;BME280;5493;48.884;8.338;2023-06-04T04:55:17;100216.34;;;17.64;100.00
10881;BME280;5493;48.884;8.338;2023-06-04T04:57:44;100214.19;;;17.81;98.92
10881;BME280;5493;48.884;8.338;2023-06-04T05:00:11;100214.50;;;17.80;97.58
10881;BME280;5493;48.884;8.338;2023-06-04T05:02:39;100212.00;;;17.73;97.32
10881;BME280;5493;48.884;8.338;2023-06-04T05:05:06;100213.97;;;17.98;95.67
10881;BME280;5493;48.884;8.338;2023-06-04T05:07:34;100214.34;;;18.52;90.56
10881;BME280;5493;48.884;8.338;2023-06-04T05:10:00;100214.00;;;18.38;90.22
10881;BME280;5493;48.884;8.338;2023-06-04T05:12:29;100219.78;;;18.87;89.47
10881;BME280;5493;48.884;8.338;2023-06-04T05:14:56;100217.06;;;18.72;87.04
10881;BME280;5493;48.884;8.338;2023-06-04T05:17:22;100221.41;;;18.63;87.21
10881;BME280;5493;48.884;8.338;2023-06-04T05:19:55;100216.47;;;18.85;82.70
10881;BME280;5493;48.884;8.338;2023-06-04T05:22:27;100219.75;;;19.82;79.57
10881;BME280;5493;48.884;8.338;2023-06-04T05:24:55;100219.25;;;19.64;78.05
10881;BME280;5493;48.884;8.338;2023-06-04T05:27:24;100220.25;;;19.89;75.50
10881;BME280;5493;48.884;8.338;2023-06-04T05:29:50;100224.59;;;19.95;74.09
10881;BME280;5493;48.884;8.338;2023-06-04T05:32:17;100223.03;;;20.23;70.77
10881;BME280;5493;48.884;8.338;2023-06-04T05:34:43;100225.66;;;20.43;70.33
10881;BME280;5493;48.884;8.338;2023-06-04T05:37:12;100221.03;;;20.72;68.43
10881;BME280;5493;48.884;8.338;2023-06-04T05:39:41;100222.72;;;20.68;67.74
10881;BME280;5493;48.884;8.338;2023-06-04T05:42:09;100227.41;;;20.24;65.77
10881;BME280;5493;48.884;8.338;2023-06-04T05:44:36;100229.50;;;21.04;65.28
10881;BME280;5493;48.884;8.338;2023-06-04T05:47:02;100228.03;;;21.41;64.41
10881;BME280;5493;48.884;8.338;2023-06-04T05:49:29;100223.44;;;21.07;61.78
10881;BME280;5493;48.884;8.338;2023-06-04T05:51:55;100228.25;;;21.44;61.26
10881;BME280;5493;48.884;8.338;2023-06-04T05:54:22;100230.19;;;21.44;59.24
10881;BME280;5493;48.884;8.338;2023-06-04T05:56:48;100235.16;;;21.84;58.68
10881;BME280;5493;48.884;8.338;2023-06-04T05:59:16;100232.44;;;21.60;58.71
10881;BME280;5493;48.884;8.338;2023-06-04T06:01:42;100238.84;;;20.98;59.44
10881;BME280;5493;48.884;8.338;2023-06-04T06:04:09;100235.50;;;21.78;58.02
10881;BME280;5493;48.884;8.338;2023-06-04T06:06:37;100231.59;;;22.58;56.62
10881;BME280;5493;48.884;8.338;2023-06-04T06:09:04;100238.72;;;21.85;58.41
10881;BME280;5493;48.884;8.338;2023-06-04T06:11:31;100226.88;;;22.08;56.34
10881;BME280;5493;48.884;8.338;2023-06-04T06:13:57;100235.47;;;21.12;59.09
10881;BME280;5493;48.884;8.338;2023-06-04T06:16:25;100242.56;;;21.13;62.29
10881;BME280;5493;48.884;8.338;2023-06-04T06:18:52;100239.88;;;20.45;64.97
10881;BME280;5493;48.884;8.338;2023-06-04T06:21:19;100231.81;;;20.20;67.18
10881;BME280;5493;48.884;8.338;2023-06-04T06:23:45;100235.16;;;20.84;63.95
10881;BME280;5493;48.884;8.338;2023-06-04T06:26:12;100234.66;;;21.58;62.00
10881;BME280;5493;48.884;8.338;2023-06-04T06:28:39;100236.00;;;21.14;63.46
10881;BME280;5493;48.884;8.338;2023-06-04T06:31:05;100246.66;;;21.86;60.17
10881;BME280;5493;48.884;8.338;2023-06-04T06:33:33;100240.16;;;22.20;56.57
10881;BME280;5493;48.884;8.338;2023-06-04T06:36:00;100251.63;;;22.59;55.25
10881;BME280;5493;48.884;8.338;2023-06-04T06:38:27;100244.81;;;23.21;52.26
10881;BME280;5493;48.884;8.338;2023-06-04T06:40:53;100244.69;;;22.29;54.78
10881;BME280;5493;48.884;8.338;2023-06-04T06:43:20;100249.81;;;22.87;53.08
10881;BME280;5493;48.884;8.338;2023-06-04T06:45:46;100253.94;;;22.71;52.52
10881;BME280;5493;48.884;8.338;2023-06-04T06:48:13;100258.88;;;23.88;50.80
10881;BME280;5493;48.884;8.338;2023-06-04T06:50:41;100257.97;;;23.51;50.97
10881;BME280;5493;48.884;8.338;2023-06-04T06:53:07;100259.06;;;23.37;51.85
10881;BME280;5493;48.884;8.338;2023-06-04T06:55:34;100265.09;;;23.93;49.77
10881;BME280;5493;48.884;8.338;2023-06-04T06:58:00;100261.22;;;23.81;49.17
10881;BME280;5493;48.884;8.338;2023-06-04T07:00:27;100260.53;;;23.75;49.14
10881;BME280;5493;48.884;8.338;2023-06-04T07:02:53;100261.50;;;23.25;49.36
10881;BME280;5493;48.884;8.338;2023-06-04T07:05:20;100259.00;;;23.83;50.72
10881;BME280;5493;48.884;8.338;2023-06-04T07:07:48;100263.06;;;23.85;49.45
10881;BME280;5493;48.884;8.338;2023-06-04T07:10:15;100263.44;;;24.06;48.19
10881;BME280;5493;48.884;8.338;2023-06-04T07:12:42;100267.13;;;23.88;48.15
10881;BME280;5493;48.884;8.338;2023-06-04T07:15:08;100269.25;;;24.18;47.27
10881;BME280;5493;48.884;8.338;2023-06-04T07:17:36;100257.09;;;25.00;46.11
10881;BME280;5493;48.884;8.338;2023-06-04T07:20:03;100260.66;;;25.00;45.54
10881;BME280;5493;48.884;8.338;2023-06-04T07:22:32;100267.09;;;24.51;46.21
10881;BME280;5493;48.884;8.338;2023-06-04T07:24:59;100265.16;;;26.14;44.79
10881;BME280;5493;48.884;8.338;2023-06-04T07:27:26;100262.53;;;26.09;42.27
10881;BME280;5493;48.884;8.338;2023-06-04T07:29:53;100263.78;;;25.77;43.80
10881;BME280;5493;48.884;8.338;2023-06-04T07:32:20;100268.38;;;25.99;42.24
10881;BME280;5493;48.884;8.338;2023-06-04T07:34:46;100273.66;;;25.30;43.17
10881;BME280;5493;48.884;8.338;2023-06-04T07:37:13;100272.19;;;25.02;43.86
10881;BME280;5493;48.884;8.338;2023-06-04T07:39:40;100282.59;;;25.67;43.32
10881;BME280;5493;48.884;8.338;2023-06-04T07:42:08;100278.03;;;26.27;42.70
10881;BME280;5493;48.884;8.338;2023-06-04T07:44:36;100281.25;;;26.04;42.11
10881;BME280;5493;48.884;8.338;2023-06-04T07:47:03;100276.22;;;26.14;41.82
10881;BME280;5493;48.884;8.338;2023-06-04T07:49:30;100269.59;;;26.84;41.94
10881;BME280;5493;48.884;8.338;2023-06-04T07:51:56;100268.09;;;26.78;40.20
10881;BME280;5493;48.884;8.338;2023-06-04T07:54:23;100266.41;;;25.82;40.92
10881;BME280;5493;48.884;8.338;2023-06-04T07:56:50;100272.13;;;27.06;40.48
10881;BME280;5493;48.884;8.338;2023-06-04T07:59:22;100265.81;;;26.97;39.35
10881;BME280;5493;48.884;8.338;2023-06-04T08:01:49;100267.91;;;27.09;39.02
10881;BME280;5493;48.884;8.338;2023-06-04T08:04:16;100274.97;;;26.46;40.55
10881;BME280;5493;48.884;8.338;2023-06-04T08:06:42;100262.59;;;26.61;40.88
10881;BME280;5493;48.884;8.338;2023-06-04T08:09:10;100257.53;;;26.63;41.55
10881;BME280;5493;48.884;8.338;2023-06-04T08:11:38;100265.59;;;25.90;42.35
10881;BME280;5493;48.884;8.338;2023-06-04T08:14:05;100263.97;;;25.89;41.88
10881;BME280;5493;48.884;8.338;2023-06-04T08:16:33;100259.28;;;26.16;42.04
10881;BME280;5493;48.884;8.338;2023-06-04T08:18:59;100270.78;;;25.75;42.79
10881;BME280;5493;48.884;8.338;2023-06-04T08:21:26;100262.88;;;26.08;41.48
10881;BME280;5493;48.884;8.338;2023-06-04T08:23:53;100266.63;;;26.12;41.01
10881;BME280;5493;48.884;8.338;2023-06-04T08:26:20;100264.53;;;26.60;41.55
10881;BME280;5493;48.884;8.338;2023-06-04T08:28:47;100265.84;;;26.20;41.04
10881;BME280;5493;48.884;8.338;2023-06-04T08:31:14;100261.63;;;26.39;41.10
10881;BME280;5493;48.884;8.338;2023-06-04T08:33:44;100259.50;;;26.45;40.48
10881;BME280;5493;48.884;8.338;2023-06-04T08:36:11;100257.47;;;25.94;41.23
10881;BME280;5493;48.884;8.338;2023-06-04T08:38:37;100260.47;;;26.66;39.59
10881;BME280;5493;48.884;8.338;2023-06-04T08:41:13;100258.66;;;26.96;39.86
10881;BME280;5493;48.884;8.338;2023-06-04T08:43:42;100256.41;;;26.64;40.01
10881;BME280;5493;48.884;8.338;2023-06-04T08:46:11;100265.00;;;26.97;38.94
10881;BME280;5493;48.884;8.338;2023-06-04T08:48:38;100264.94;;;27.69;39.49
10881;BME280;5493;48.884;8.338;2023-06-04T08:51:07;100264.78;;;28.24;39.25
10881;BME280;5493;48.884;8.338;2023-06-04T08:53:35;100262.13;;;27.77;39.76
10881;BME280;5493;48.884;8.338;2023-06-04T08:56:02;100270.47;;;28.27;39.67
10881;BME280;5493;48.884;8.338;2023-06-04T08:58:30;100273.38;;;27.34;39.21
10881;BME280;5493;48.884;8.338;2023-06-04T09:00:57;100276.34;;;27.97;38.46
10881;BME280;5493;48.884;8.338;2023-06-04T09:03:25;100283.78;;;28.75;37.47
10881;BME280;5493;48.884;8.338;2023-06-04T09:05:52;100280.78;;;27.60;37.69
10881;BME280;5493;48.884;8.338;2023-06-04T09:08:22;100286.97;;;28.24;38.31
10881;BME280;5493;48.884;8.338;2023-06-04T09:10:50;100289.28;;;28.96;37.25
10881;BME280;5493;48.884;8.338;2023-06-04T09:13:22;100292.91;;;28.76;36.48
10881;BME280;5493;48.884;8.338;2023-06-04T09:15:58;100288.59;;;28.25;36.83
10881;BME280;5493;48.884;8.338;2023-06-04T09:18:26;100285.59;;;29.49;35.79
10881;BME280;5493;48.884;8.338;2023-06-04T09:21:00;100291.56;;;28.82;37.00
10881;BME280;5493;48.884;8.338;2023-06-04T09:23:28;100292.03;;;28.84;36.85
10881;BME280;5493;48.884;8.338;2023-06-04T09:25:55;100294.22;;;29.11;36.37
10881;BME280;5493;48.884;8.338;2023-06-04T09:28:22;100288.16;;;29.09;37.40
10881;BME280;5493;48.884;8.338;2023-06-04T09:30:51;100288.91;;;29.18;37.89
10881;BME280;5493;48.884;8.338;2023-06-04T09:33:18;100287.50;;;29.24;35.80
10881;BME280;5493;48.884;8.338;2023-06-04T09:35:53;100293.59;;;29.26;36.49
10881;BME280;5493;48.884;8.338;2023-06-04T09:38:19;100293.28;;;29.19;36.46
10881;BME280;5493;48.884;8.338;2023-06-04T09:40:47;100288.75;;;29.84;35.89
10881;BME280;5493;48.884;8.338;2023-06-04T09:43:21;100294.31;;;29.72;35.80
10881;BME280;5493;48.884;8.338;2023-06-04T09:45:48;100284.22;;;29.67;35.33
10881;BME280;5493;48.884;8.338;2023-06-04T09:48:19;100283.84;;;29.45;34.20
10881;BME280;5493;48.884;8.338;2023-06-04T09:50:46;100280.19;;;29.65;34.43
10881;BME280;5493;48.884;8.338;2023-06-04T09:53:13;100286.13;;;29.88;35.04
10881;BME280;5493;48.884;8.338;2023-06-04T09:55:40;100285.13;;;29.35;35.17
10881;BME280;5493;48.884;8.338;2023-06-04T09:58:10;100283.69;;;29.86;35.16
10881;BME280;5493;48.884;8.338;2023-06-04T10:00:37;100278.94;;;29.87;33.36
10881;BME280;5493;48.884;8.338;2023-06-04T10:03:04;100280.28;;;29.32;32.27
10881;BME280;5493;48.884;8.338;2023-06-04T10:05:32;100274.38;;;29.34;33.18
10881;BME280;5493;48.884;8.338;2023-06-04T10:08:03;100273.16;;;28.36;33.41
10881;BME280;5493;48.884;8.338;2023-06-04T10:10:34;100273.47;;;28.55;34.89
10881;BME280;5493;48.884;8.338;2023-06-04T10:13:03;100262.75;;;28.54;35.38
10881;BME280;5493;48.884;8.338;2023-06-04T10:15:33;100271.75;;;29.04;35.65
10881;BME280;5493;48.884;8.338;2023-06-04T10:18:02;100268.06;;;28.59;36.11
10881;BME280;5493;48.884;8.338;2023-06-04T10:20:30;100268.47;;;28.49;35.62
10881;BME280;5493;48.884;8.338;2023-06-04T10:22:57;100259.25;;;29.10;35.64
10881;BME280;5493;48.884;8.338;2023-06-04T10:25:26;100259.81;;;29.97;34.14
10881;BME280;5493;48.884;8.338;2023-06-04T10:27:52;100260.00;;;28.87;35.00
10881;BME280;5493;48.884;8.338;2023-06-04T10:30:19;100254.38;;;29.07;34.30
10881;BME280;5493;48.884;8.338;2023-06-04T10:32:47;100265.22;;;29.33;35.13
10881;BME280;5493;48.884;8.338;2023-06-04T10:35:14;100264.22;;;29.62;32.70
10881;BME280;5493;48.884;8.338;2023-06-04T10:37:41;100265.50;;;29.07;35.18
10881;BME280;5493;48.884;8.338;2023-06-04T10:40:08;100260.03;;;29.92;34.20
10881;BME280;5493;48.884;8.338;2023-06-04T10:42:38;100262.72;;;28.74;33.08
10881;BME280;5493;48.884;8.338;2023-06-04T10:45:07;100276.56;;;28.95;31.39
10881;BME280;5493;48.884;8.338;2023-06-04T10:47:35;100263.63;;;29.44;30.65
10881;BME280;5493;48.884;8.338;2023-06-04T10:50:10;100255.06;;;29.37;32.56
10881;BME280;5493;48.884;8.338;2023-06-04T10:52:38;100259.13;;;29.52;33.44
10881;BME280;5493;48.884;8.338;2023-06-04T10:55:06;100268.00;;;29.33;33.89
10881;BME280;5493;48.884;8.338;2023-06-04T10:57:33;100261.28;;;29.34;33.73
10881;BME280;5493;48.884;8.338;2023-06-04T11:00:00;100269.41;;;29.51;31.52
10881;BME280;5493;48.884;8.338;2023-06-04T11:02:30;100262.91;;;29.59;31.82
10881;BME280;5493;48.884;8.338;2023-06-04T11:05:00;100267.44;;;30.12;32.00
10881;BME280;5493;48.884;8.338;2023-06-04T11:07:42;100268.16;;;29.73;30.93
10881;BME280;5493;48.884;8.338;2023-06-04T11:10:10;100263.50;;;30.01;30.33
10881;BME280;5493;48.884;8.338;2023-06-04T11:12:44;100255.41;;;29.96;31.40
10881;BME280;5493;48.884;8.338;2023-06-04T11:15:11;100256.38;;;30.28;32.13
10881;BME280;5493;48.884;8.338;2023-06-04T11:17:37;100262.34;;;29.78;31.52
10881;BME280;5493;48.884;8.338;2023-06-04T11:20:15;100256.44;;;29.67;31.45
10881;BME280;5493;48.884;8.338;2023-06-04T11:22:50;100265.44;;;30.25;32.41
10881;BME280;5493;48.884;8.338;2023-06-04T11:25:17;100268.25;;;30.01;32.10
10881;BME280;5493;48.884;8.338;2023-06-04T11:27:43;100250.78;;;29.52;31.73
10881;BME280;5493;48.884;8.338;2023-06-04T11:30:11;100256.78;;;29.54;31.86
10881;BME280;5493;48.884;8.338;2023-06-04T11:32:39;100256.38;;;30.28;32.15
10881;BME280;5493;48.884;8.338;2023-06-04T11:35:06;100251.25;;;30.02;31.96
10881;BME280;5493;48.884;8.338;2023-06-04T11:37:33;100248.94;;;30.32;30.91
10881;BME280;5493;48.884;8.338;2023-06-04T11:40:01;100243.03;;;30.34;32.04
10881;BME280;5493;48.884;8.338;2023-06-04T11:42:30;100251.78;;;30.20;31.03
10881;BME280;5493;48.884;8.338;2023-06-04T11:44:57;100244.75;;;29.86;31.46
10881;BME280;5493;48.884;8.338;2023-06-04T11:47:24;100250.16;;;29.34;32.35
10881;BME280;5493;48.884;8.338;2023-06-04T11:49:54;100248.91;;;29.56;32.24
10881;BME280;5493;48.884;8.338;2023-06-04T11:52:21;100250.97;;;30.19;32.29
10881;BME280;5493;48.884;8.338;2023-06-04T11:54:48;100257.47;;;29.99;32.22
10881;BME280;5493;48.884;8.338;2023-06-04T11:57:16;100258.44;;;29.91;31.17
10881;BME280;5493;48.884;8.338;2023-06-04T11:59:43;100239.88;;;30.47;31.63
10881;BME280;5493;48.884;8.338;2023-06-04T12:02:10;100245.78;;;29.45;31.56
10881;BME280;5493;48.884;8.338;2023-06-04T12:04:37;100250.31;;;29.98;31.09
10881;BME280;5493;48.884;8.338;2023-06-04T12:07:04;100243.13;;;29.49;31.25
10881;BME280;5493;48.884;8.338;2023-06-04T12:09:33;100247.75;;;29.93;30.62
10881;BME280;5493;48.884;8.338;2023-06-04T12:12:00;100244.97;;;29.81;30.57
10881;BME280;5493;48.884;8.338;2023-06-04T12:14:29;100235.72;;;30.41;29.94
10881;BME280;5493;48.884;8.338;2023-06-04T12:16:56;100233.81;;;30.57;30.81
10881;BME280;5493;48.884;8.338;2023-06-04T12:19:23;100239.53;;;29.97;30.54
10881;BME280;5493;48.884;8.338;2023-06-04T12:22:02;100227.81;;;30.03;30.82
10881;BME280;5493;48.884;8.338;2023-06-04T12:24:29;100223.97;;;30.75;30.48
10881;BME280;5493;48.884;8.338;2023-06-04T12:27:02;100228.81;;;30.63;30.00
10881;BME280;5493;48.884;8.338;2023-06-04T12:29:31;100228.91;;;31.10;28.48
10881;BME280;5493;48.884;8.338;2023-06-04T12:32:05;100237.91;;;30.36;28.93
10881;BME280;5493;48.884;8.338;2023-06-04T12:34:33;100226.22;;;30.70;28.97
10881;BME280;5493;48.884;8.338;2023-06-04T12:36:59;100230.34;;;30.60;28.80
10881;BME280;5493;48.884;8.338;2023-06-04T12:39:26;100236.75;;;30.49;28.83
10881;BME280;5493;48.884;8.338;2023-06-04T12:41:53;100243.69;;;30.03;29.61
10881;BME280;5493;48.884;8.338;2023-06-04T12:44:19;100235.91;;;30.20;29.35
10881;BME280;5493;48.884;8.338;2023-06-04T12:46:47;100241.09;;;30.22;29.36
10881;BME280;5493;48.884;8.338;2023-06-04T12:49:14;100236.97;;;30.71;28.42
10881;BME280;5493;48.884;8.338;2023-06-04T12:51:40;100237.06;;;30.07;29.86
10881;BME280;5493;48.884;8.338;2023-06-04T12:54:07;100236.19;;;30.71;30.66
10881;BME280;5493;48.884;8.338;2023-06-04T12:56:33;100229.56;;;30.36;29.02
10881;BME280;5493;48.884;8.338;2023-06-04T12:59:00;100231.09;;;29.69;29.23